createdAt,value
2022-11-17T00:01:48.997Z,50.83
2022-11-17T00:06:06.967Z,50.85
2022-11-17T00:10:24.214Z,48.50
2022-11-17T00:14:41.507Z,49.42
2022-11-17T00:19:17.528Z,48.42
2022-11-17T00:23:47.470Z,51.03
2022-11-17T00:28:05.046Z,54.70
2022-11-17T00:32:40.818Z,49.03
2022-11-17T00:36:58.102Z,55.55
2022-11-17T00:41:15.330Z,50.78
2022-11-17T00:45:32.698Z,48.22
2022-11-17T00:49:49.900Z,52.55
2022-11-17T00:54:10.133Z,43.22
2022-11-17T00:58:27.324Z,52.50
2022-11-17T01:02:44.628Z,56.65
2022-11-17T01:07:01.827Z,48.38
2022-11-17T01:11:19.809Z,47.72
2022-11-17T01:15:37.068Z,53.07
2022-11-17T01:19:54.280Z,59.40
2022-11-17T01:24:12.931Z,50.78
2022-11-17T01:32:47.571Z,43.08
2022-11-17T01:37:20.057Z,43.10
2022-11-17T01:41:37.233Z,44.58
2022-11-17T01:45:54.756Z,44.30
2022-11-17T01:50:33.599Z,40.65
2022-11-17T01:54:53.345Z,38.97
2022-11-17T01:59:20.050Z,36.65
2022-11-17T02:03:39.779Z,40.60
2022-11-17T02:08:00.952Z,41.35
2022-11-17T02:12:18.991Z,36.33
2022-11-17T02:16:36.155Z,22.53
2022-11-17T02:21:27.320Z,26.30
2022-11-17T02:26:22.036Z,19.35
2022-11-17T02:30:55.879Z,20.10
2022-11-17T02:35:36.209Z,23.45
2022-11-17T02:40:21.730Z,19.58
2022-11-17T02:44:57.816Z,19.75
2022-11-17T02:49:29.451Z,19.65
2022-11-17T02:53:47.972Z,19.10
2022-11-17T02:58:11.359Z,20.27
2022-11-17T03:03:10.229Z,19.88
2022-11-17T03:07:30.363Z,19.27
2022-11-17T03:11:59.811Z,18.77
2022-11-17T03:16:34.950Z,19.80
2022-11-17T03:21:16.554Z,20.45
2022-11-17T03:25:37.580Z,18.98
2022-11-17T03:30:00.574Z,19.60
2022-11-17T03:34:22.015Z,25.30
2022-11-17T03:39:01.432Z,22.65
2022-11-17T03:47:37.763Z,22.80
2022-11-17T03:51:55.495Z,21.30
2022-11-17T03:56:40.092Z,21.13
2022-11-17T04:01:00.679Z,22.48
2022-11-17T04:05:18.132Z,22.15
2022-11-17T04:09:35.299Z,21.33
2022-11-17T04:14:11.308Z,25.98
2022-11-17T04:18:28.521Z,21.98
2022-11-17T04:22:45.703Z,23.30
2022-11-17T04:27:21.863Z,25.80
2022-11-17T04:31:39.155Z,25.70
2022-11-17T04:35:57.205Z,27.08
2022-11-17T04:40:14.730Z,26.05
2022-11-17T04:44:33.166Z,33.05
2022-11-17T04:48:51.931Z,31.85
2022-11-17T04:53:09.094Z,32.28
2022-11-17T04:57:26.354Z,25.23
2022-11-17T05:01:44.374Z,25.23
2022-11-17T05:06:01.546Z,26.67
2022-11-17T05:10:38.823Z,30.23
2022-11-17T05:14:56.086Z,29.10
2022-11-17T05:19:16.386Z,38.15
2022-11-17T05:23:53.097Z,26.58
2022-11-17T05:28:10.379Z,27.95
2022-11-17T05:32:27.615Z,28.98
2022-11-17T05:36:45.568Z,26.75
2022-11-17T05:41:02.775Z,28.30
2022-11-17T05:45:19.962Z,25.90
2022-11-17T05:49:37.119Z,25.50
2022-11-17T05:53:54.334Z,25.60
2022-11-17T05:58:21.287Z,24.33
2022-11-17T06:02:44.357Z,26.90
2022-11-17T06:07:02.457Z,25.85
2022-11-17T06:11:20.024Z,26.92
2022-11-17T06:15:37.764Z,25.98
2022-11-17T06:19:59.762Z,26.87
2022-11-17T06:24:17.606Z,24.27
2022-11-17T06:28:36.163Z,23.67
2022-11-17T06:32:53.714Z,23.55
2022-11-17T06:37:11.539Z,23.50
2022-11-17T06:41:28.889Z,24.93
2022-11-17T06:45:46.767Z,25.65
2022-11-17T06:50:04.940Z,26.23
2022-11-17T06:54:22.236Z,26.27
2022-11-17T06:58:41.517Z,24.90
2022-11-17T07:03:03.689Z,25.70
2022-11-17T07:07:20.943Z,26.17
2022-11-17T07:11:38.194Z,25.52
2022-11-17T07:15:55.389Z,27.65
2022-11-17T07:20:13.215Z,24.95
2022-11-17T07:24:30.442Z,26.10
2022-11-17T07:28:47.652Z,24.10
2022-11-17T07:33:06.128Z,22.90
2022-11-17T07:37:23.308Z,23.98
2022-11-17T07:41:40.690Z,22.35
2022-11-17T07:45:57.935Z,21.05
2022-11-17T07:50:15.995Z,18.50
2022-11-17T07:54:33.203Z,17.60
2022-11-17T07:58:50.392Z,17.58
2022-11-17T08:03:08.132Z,17.70
2022-11-17T08:07:25.397Z,17.40
2022-11-17T08:11:42.593Z,18.50
2022-11-17T08:15:59.916Z,25.27
2022-11-17T08:20:17.148Z,24.80
2022-11-17T08:24:34.331Z,26.85
2022-11-17T08:28:57.915Z,27.00
2022-11-17T08:33:15.630Z,24.65
2022-11-17T08:37:33.191Z,19.70
2022-11-17T08:41:51.838Z,27.13
2022-11-17T08:46:12.882Z,21.42
2022-11-17T08:50:30.126Z,28.55
2022-11-17T08:54:47.308Z,25.60
2022-11-17T08:59:04.748Z,19.75
2022-11-17T09:03:22.017Z,15.90
2022-11-17T09:07:40.211Z,16.05
2022-11-17T09:11:58.272Z,14.40
2022-11-17T09:16:16.845Z,14.63
2022-11-17T09:20:34.126Z,17.45
2022-11-17T09:24:51.329Z,14.45
2022-11-17T09:29:09.424Z,14.93
2022-11-17T09:33:27.066Z,13.02
2022-11-17T09:37:44.668Z,13.00
2022-11-17T09:42:01.953Z,13.32
2022-11-17T09:46:46.538Z,8.73
2022-11-17T09:51:07.962Z,11.63
2022-11-17T09:55:40.824Z,9.48
2022-11-17T10:00:06.450Z,7.95
2022-11-17T10:04:28.343Z,7.45
2022-11-17T10:09:00.373Z,8.25
2022-11-17T10:13:24.724Z,7.22
2022-11-17T10:17:42.687Z,9.75
2022-11-17T10:22:02.728Z,9.70
2022-11-17T10:26:19.929Z,7.35
2022-11-17T10:30:37.276Z,6.60
2022-11-17T10:34:55.121Z,8.15
2022-11-17T10:39:36.941Z,7.33
2022-11-17T10:44:12.455Z,8.52
2022-11-17T10:48:33.014Z,10.43
2022-11-17T10:52:52.150Z,8.23
2022-11-17T10:57:22.072Z,7.97
2022-11-17T11:01:44.573Z,7.03
2022-11-17T11:06:06.639Z,6.03
2022-11-17T11:10:35.179Z,6.72
2022-11-17T11:14:56.405Z,7.38
2022-11-17T11:19:16.474Z,5.22
2022-11-17T11:23:36.673Z,4.40
2022-11-17T11:28:15.916Z,5.18
2022-11-17T11:32:54.488Z,5.63
2022-11-17T11:37:14.989Z,4.40
2022-11-17T11:42:07.963Z,3.60
2022-11-17T11:46:55.950Z,3.28
2022-11-17T11:51:21.057Z,2.88
2022-11-17T11:55:41.494Z,2.20
2022-11-17T12:00:07.919Z,3.22
2022-11-17T12:05:21.744Z,2.90
2022-11-17T12:10:08.318Z,1.65
2022-11-17T12:14:26.013Z,1.80
2022-11-17T12:18:43.494Z,1.40
2022-11-17T12:23:15.938Z,1.40
2022-11-17T12:27:36.295Z,1.48
2022-11-17T12:31:56.089Z,1.50
2022-11-17T12:36:31.558Z,1.48
2022-11-17T12:40:48.866Z,1.30
2022-11-17T12:45:13.315Z,1.50
2022-11-17T12:49:59.892Z,1.27
2022-11-17T12:54:54.462Z,0.90
2022-11-17T12:59:25.572Z,1.80
2022-11-17T13:04:02.581Z,1.80
2022-11-17T13:08:24.043Z,2.92
2022-11-17T13:12:41.277Z,2.05
2022-11-17T13:17:00.437Z,2.33
2022-11-17T13:21:30.150Z,2.45
2022-11-17T13:25:47.790Z,2.47
2022-11-17T13:30:21.509Z,2.72
2022-11-17T13:34:57.339Z,2.08
2022-11-17T13:39:19.669Z,3.10
2022-11-17T13:43:40.537Z,3.15
2022-11-17T13:47:59.413Z,3.20
2022-11-17T13:52:43.604Z,3.08
2022-11-17T13:57:07.414Z,3.88
2022-11-17T14:01:29.246Z,3.20
2022-11-17T14:05:59.015Z,3.50
2022-11-17T14:10:22.312Z,3.00
2022-11-17T14:14:39.659Z,2.70
2022-11-17T14:19:05.727Z,2.78
2022-11-17T14:23:22.955Z,2.90
2022-11-17T14:27:40.416Z,3.03
2022-11-17T14:31:57.688Z,2.78
2022-11-17T14:36:16.402Z,2.45
2022-11-17T14:44:50.714Z,2.47
2022-11-17T14:49:08.484Z,2.97
2022-11-17T14:53:26.296Z,3.15
2022-11-17T14:57:43.525Z,3.07
2022-11-17T15:02:00.777Z,2.60
2022-11-17T15:06:20.332Z,1.77
2022-11-17T15:10:42.930Z,2.10
2022-11-17T15:15:00.165Z,2.13
2022-11-17T15:19:17.467Z,2.03
2022-11-17T15:23:37.579Z,2.03
2022-11-17T15:27:55.980Z,2.10
2022-11-17T15:32:13.213Z,2.10
2022-11-17T15:36:31.767Z,2.25
2022-11-17T15:40:54.512Z,2.08
2022-11-17T15:45:11.738Z,2.30
2022-11-17T15:49:28.940Z,3.28
2022-11-17T15:53:47.850Z,2.97
2022-11-17T15:58:05.044Z,2.85
2022-11-17T16:02:22.286Z,2.97
2022-11-17T16:06:41.344Z,3.30
2022-11-17T16:10:58.605Z,3.15
2022-11-17T16:15:16.598Z,3.50
2022-11-17T16:19:33.778Z,3.67
2022-11-17T16:23:56.065Z,3.55
2022-11-17T16:28:14.020Z,3.30
2022-11-17T16:32:31.675Z,6.10
2022-11-17T16:36:49.179Z,3.17
2022-11-17T16:41:06.672Z,3.08
2022-11-17T16:45:24.454Z,2.60
2022-11-17T16:49:41.835Z,4.13
2022-11-17T16:54:04.995Z,3.00
2022-11-17T16:58:22.449Z,3.00
2022-11-17T17:02:39.940Z,3.42
2022-11-17T17:06:57.439Z,4.55
2022-11-17T17:11:16.275Z,5.65
2022-11-17T17:19:51.279Z,5.15
2022-11-17T17:24:09.998Z,4.90
2022-11-17T17:32:46.519Z,3.90
2022-11-17T17:37:03.965Z,3.75
2022-11-17T17:41:22.524Z,4.63
2022-11-17T17:45:40.017Z,4.40
2022-11-17T17:49:57.416Z,6.53
2022-11-17T17:54:18.008Z,6.32
2022-11-17T17:58:41.429Z,6.28
2022-11-17T18:03:00.856Z,8.50
2022-11-17T18:07:18.469Z,14.18
2022-11-17T18:11:36.587Z,4.95
2022-11-17T18:15:54.056Z,7.38
2022-11-17T18:20:12.087Z,9.43
2022-11-17T18:24:29.513Z,7.57
2022-11-17T18:29:04.974Z,11.93
2022-11-17T18:33:22.486Z,9.30
2022-11-17T18:37:39.830Z,10.23
2022-11-17T18:41:57.397Z,9.27
2022-11-17T18:46:17.794Z,8.85
2022-11-17T18:50:47.524Z,11.32
2022-11-17T18:55:12.324Z,14.32
2022-11-17T18:59:29.554Z,15.15
2022-11-17T19:03:49.441Z,9.40
2022-11-17T19:08:06.802Z,12.43
2022-11-17T19:12:24.214Z,11.45
2022-11-17T19:16:44.767Z,11.98
2022-11-17T19:21:11.556Z,8.57
2022-11-17T19:25:29.017Z,9.18
2022-11-17T19:29:46.432Z,7.57
2022-11-17T19:34:04.723Z,8.88
2022-11-17T19:38:22.142Z,7.15
2022-11-17T19:42:41.684Z,7.95
2022-11-17T19:46:59.126Z,6.15
2022-11-17T19:51:22.874Z,6.07
2022-11-17T19:55:40.432Z,7.20
2022-11-17T19:59:57.923Z,7.13
2022-11-17T20:04:15.342Z,6.97
2022-11-17T20:08:32.739Z,7.20
2022-11-17T20:12:49.944Z,10.13
2022-11-17T20:17:07.160Z,7.93
2022-11-17T20:21:25.553Z,8.13
2022-11-17T20:25:42.740Z,7.75
2022-11-17T20:29:59.923Z,7.65
2022-11-17T20:34:17.307Z,8.48
2022-11-17T20:38:35.925Z,8.07
2022-11-17T20:47:10.252Z,7.50
2022-11-17T20:51:27.531Z,6.85
2022-11-17T20:55:44.706Z,5.90
2022-11-17T21:00:01.883Z,6.25
2022-11-17T21:04:19.126Z,5.80
2022-11-17T21:08:38.538Z,6.88
2022-11-17T21:12:55.691Z,7.00
2022-11-17T21:17:32.917Z,7.60
2022-11-17T21:21:53.740Z,7.70
2022-11-17T21:26:16.887Z,6.65
2022-11-17T21:30:34.070Z,6.63
2022-11-17T21:34:51.756Z,6.65
2022-11-17T21:39:09.035Z,6.30
2022-11-17T21:43:26.232Z,6.00
2022-11-17T21:47:43.412Z,7.03
2022-11-17T21:52:00.824Z,7.35
2022-11-17T21:56:18.153Z,6.93
2022-11-17T22:00:35.449Z,5.70
2022-11-17T22:04:52.667Z,5.45
2022-11-17T22:09:09.944Z,5.78
2022-11-17T22:13:30.447Z,5.85
2022-11-17T22:17:48.699Z,5.72
2022-11-17T22:22:07.263Z,7.07
2022-11-17T22:26:24.683Z,6.97
2022-11-17T22:30:41.847Z,5.95
2022-11-17T22:35:01.665Z,7.57
2022-11-17T22:39:19.215Z,5.32
2022-11-17T22:43:38.135Z,6.13
2022-11-17T22:47:55.339Z,5.30
2022-11-17T22:52:12.826Z,4.65
2022-11-17T22:56:30.230Z,5.18
2022-11-17T23:00:47.425Z,5.60
2022-11-17T23:05:04.903Z,5.93
2022-11-17T23:09:22.176Z,5.28
2022-11-17T23:13:39.403Z,5.22
2022-11-17T23:17:56.629Z,5.88
2022-11-17T23:22:13.868Z,5.05
2022-11-17T23:26:31.040Z,4.85
2022-11-17T23:30:48.229Z,5.50
2022-11-17T23:35:05.767Z,5.25
2022-11-17T23:39:22.974Z,5.50
2022-11-17T23:43:40.649Z,5.18
2022-11-17T23:47:57.828Z,6.47
2022-11-17T23:52:15.064Z,5.95
2022-11-17T23:56:34.297Z,6.03
